Chiang Mai, Thailand

12:11 AM ICT on August 29, 2015 (GMT +0700)
ThaiWx Station | | Change Station
CLOSE
Current Station
Personal Weather Station
Location: Chiang Mai, Pa Daet
Elevation: 1007 ft
Nearby Weather Stations

Elev 1007 ft 18.77 °N, 98.97 °E | Updated 15 minutes ago

Scattered Clouds
Scattered Clouds
83.7 °F
Feels Like 90 °F
N
0.0
Wind Variable Wind from West
Gusts 3.8 mph

Today
High -- | Low -- °F
--% Chance of Precip.
Yesterday
High -- | Low -- °F
Precip. -- in
6:08 AM 6:41 PM
Waxing Gibbous, 98% visible
Pressure 29.83 in
Visibility 6.2 miles
Clouds Scattered Clouds 4000 ft
Scattered Clouds 30000 ft
Heat Index 90 °F
Dew Point 72 °F
Humidity 69%
Rainfall -9999.00 in
Snow Depth Not available.
UV 0 out of 12
Pollen Not available.
Air Quality Not available.
Flu Activity Not available.
METAR VTCC 281700Z 19006KT 9999 SCT040 SCT300 28/20 Q1010 A2984 NOSIG
Pressure 29.83 in
Visibility 6.2 miles
Clouds Scattered Clouds 4000 ft
Scattered Clouds 30000 ft
Heat Index 90 °F
Dew Point 72 °F
Humidity 69%
Rainfall -9999.00 in
Snow Depth Not available.
UV 0 out of 12
Pollen Not available.
Air Quality Not available.
Flu Activity Not available.
METAR VTCC 281700Z 19006KT 9999 SCT040 SCT300 28/20 Q1010 A2984 NOSIG

10-Day Weather Forecast

×

Almanac

Astronomy

Aug. 29, 2015 Rise Set
Actual Time
Civil Twilight
Nautical Twilight
Astronomical Twilight
Moon
Length of Visible Light
Length of Day
Tomorrow will be .
, % of the Moon is Illuminated

Today's Extremes

Country Highs Country Lows

Community

WunderPhotos

Upload Photos

1,850,438 photos uploaded!

WunderBlogs® & News

Nearby

Air Quality

  Air Quality AQ Index Pollutant
Not available.

Snow Depth

Station Depth Elevation

Earthquake Activity

City Distance Mag. Time & Date
Minimum magnitude displayed is 2.5.

Coastal Water Temperatures

Place Temperature

Stations

Nearby Weather Stations

Station Location Temp. Windchill Dew Point Humidity Wind Precip. Elev Updated Type